Greenbrier Valley Airport
KLWB : rendu visible

Aérodrome :











RETROUVEZ-NOUS SUR...

 
LOGIN :

S'inscrire | Disclaimer

   EN    FR    IT 

 









Légende :    VFR   VFR Marginal   IFR   IFR Intensif   IFR Très Intensif
Visi : 
Plafond : 
>= 8 km
>= 3000ft
5 à 8 km
1000 à 3000 ft
1500m à 5 km
500 à 1000 ft
800 à 1500m
200 à 500 ft
< 800m
< 200 ft
Symboles :   Orages  Brouillard  Fortes neiges  Fortes précipitations  Vent > 20 kt






- Altitude de l'aérodrome : 2302 ft


KLWB - Greenbrier Valley

DERNIER METAR :
  • 180055Z AUTO 00000KT 10SM CLR 00/M12 A3057 RMK AO2 T10021119

METARs EXPIRÉS :
  • 180035Z AUTO 00000KT 10SM CLR 00/M12 A3057 RMK AO2 T10031118
  • 180015Z AUTO 00000KT 10SM CLR 00/M12 A3057 RMK AO2 T10041121
  • 172355Z 00000KT 10SM SKC M01/M12 A3057 RMK LAST
  • 172255Z 00000KT 10SM SKC 00/M13 A3057

TAF KLWB
Valide du 18 à 00h jusqu'au 19 à 00h UTC


172340Z 1800/1824 29002KT P6SM SCT110 BKN200
FM180600 09004KT P6SM OVC090
FM181300 06009G17KT 4SM -SN SCT025 OVC050
FM181600 13008KT 5SM -FZRAPL SCT013 OVC030
FM182000 19005KT 4SM -RA BR SCT008 OVC018 WS020/20035KT
FM182300 22007KT 3SM BR SCT004 OVC015



MET'MAP, la Météo Aéronautique d'un coup d'oeil ! - Copyright ORBIFLY Décembre 2007 - Disclaimer

ORBIFLY MET'MAP TEAM :

Programmation & Développement : Alexandra Zaïnal
Sur une idée originale de : Baudouin d'Aumeries
Assistance à la programmation : Marc-Olivier Méhu
Soutien technique & logistique : Manuel Goepfert

Contact : metmap@orbifly.com




SOURCES & CREDITS :

   NOAA       Earth
Advisory